Time;durP1;ratioP1;P1;durP2;ratioP2;P2;SDS_P1;SDS_P2;PMS_P1;PMS_P2;Temp;Humidity;BMP_temperature;BMP_pressure;BME280_temperature;BME280_humidity;BME280_pressure;Samples;Min_cycle;Max_cycle;Signal;HPM_P1;HPM_P2
2022/11/09 00:00:18;;;;;;;29.07;22.70;;;;;;;7.29;100.00;93393.94;5093006;28;20847;-70
2022/11/09 00:02:43;;;;;;;30.73;23.00;;;;;;;7.15;100.00;93383.09;5088829;28;20245;-70
2022/11/09 00:05:09;;;;;;;29.93;23.23;;;;;;;7.25;100.00;93378.06;5089399;28;20233;-70
2022/11/09 00:07:34;;;;;;;30.87;22.63;;;;;;;7.25;100.00;93387.66;5088828;28;20208;-70
2022/11/09 00:09:59;;;;;;;30.13;23.23;;;;;;;7.28;100.00;93393.16;5089675;28;21272;-70
2022/11/09 00:12:25;;;;;;;30.90;23.50;;;;;;;7.26;100.00;93390.00;5089241;28;20192;-70
2022/11/09 00:14:50;;;;;;;30.30;23.77;;;;;;;7.34;100.00;93387.00;5089772;28;20220;-70
2022/11/09 00:17:15;;;;;;;38.13;25.47;;;;;;;7.20;100.00;93375.38;5089448;28;20240;-70
2022/11/09 00:19:41;;;;;;;30.23;23.13;;;;;;;7.24;100.00;93396.44;5089883;28;20236;-70
2022/11/09 00:22:06;;;;;;;33.37;24.03;;;;;;;7.11;100.00;93392.41;5086739;28;20307;-70
2022/11/09 00:24:31;;;;;;;35.70;24.33;;;;;;;7.10;100.00;93398.59;5093264;28;21207;-71
2022/11/09 00:26:57;;;;;;;37.13;25.10;;;;;;;7.07;100.00;93378.31;5106735;28;20750;-69
2022/11/09 00:29:22;;;;;;;31.27;23.47;;;;;;;7.25;100.00;93390.25;5107444;28;20192;-70
2022/11/09 00:31:48;;;;;;;32.80;22.47;;;;;;;7.34;100.00;93394.81;5107038;28;20176;-70
2022/11/09 00:34:14;;;;;;;30.60;22.97;;;;;;;7.30;100.00;93379.94;5105910;28;20189;-70
2022/11/09 00:36:39;;;;;;;30.43;22.83;;;;;;;7.25;100.00;93377.28;5106940;28;20244;-70
2022/11/09 00:39:04;;;;;;;30.13;24.20;;;;;;;7.46;100.00;93382.50;5107780;28;20191;-70
2022/11/09 00:41:30;;;;;;;30.57;23.37;;;;;;;7.35;100.00;93372.19;5108849;28;20268;-70
2022/11/09 00:43:55;;;;;;;31.20;23.93;;;;;;;7.43;100.00;93385.56;5108353;28;20188;-70
2022/11/09 00:46:21;;;;;;;35.97;25.13;;;;;;;7.50;100.00;93380.19;5107770;28;20242;-70
2022/11/09 00:48:46;;;;;;;32.40;24.63;;;;;;;7.73;100.00;93387.75;5108909;28;20216;-70
2022/11/09 00:51:12;;;;;;;38.47;24.27;;;;;;;7.60;100.00;93375.91;5102927;28;20219;-70
2022/11/09 00:53:38;;;;;;;32.67;22.17;;;;;;;7.52;100.00;93378.13;5108828;28;20180;-70
2022/11/09 00:56:06;;;;;;;37.47;24.30;;;;;;;7.55;100.00;93375.84;5107664;28;20212;-71
2022/11/09 00:58:35;;;;;;;31.73;23.97;;;;;;;7.60;100.00;93377.72;5108148;28;20276;-69
2022/11/09 01:01:12;;;;;;;37.20;24.93;;;;;;;7.56;100.00;93374.84;5106042;28;20231;-69
2022/11/09 01:03:37;;;;;;;36.40;25.10;;;;;;;7.57;100.00;93379.00;5106633;28;20187;-71
2022/11/09 01:06:04;;;;;;;30.97;24.03;;;;;;;7.45;100.00;93373.13;5106862;28;20223;-68
2022/11/09 01:08:29;;;;;;;35.23;23.17;;;;;;;7.34;100.00;93386.22;5108536;28;20211;-70
2022/11/09 01:10:55;;;;;;;31.47;23.97;;;;;;;7.22;100.00;93370.72;5106800;28;20292;-70
2022/11/09 01:13:21;;;;;;;31.53;23.93;;;;;;;7.44;100.00;93391.56;5108482;28;20241;-70
2022/11/09 01:15:52;;;;;;;35.23;23.90;;;;;;;7.26;100.00;93384.81;5107896;28;20235;-70
2022/11/09 01:18:19;;;;;;;35.20;24.40;;;;;;;7.16;100.00;93389.09;5107327;28;20192;-70
2022/11/09 01:20:47;;;;;;;31.70;22.70;;;;;;;7.10;100.00;93372.63;5107729;28;20216;-69
2022/11/09 01:23:15;;;;;;;33.27;24.50;;;;;;;7.14;100.00;93373.75;5108460;28;20199;-70
2022/11/09 01:25:41;;;;;;;34.20;23.53;;;;;;;7.06;100.00;93389.72;5106354;28;20267;-70
2022/11/09 01:28:08;;;;;;;36.20;23.77;;;;;;;7.13;100.00;93392.94;5107110;28;20279;-70
2022/11/09 01:30:36;;;;;;;32.20;23.07;;;;;;;7.17;100.00;93391.44;5109062;28;20231;-70
2022/11/09 01:33:03;;;;;;;31.53;23.37;;;;;;;7.13;100.00;93385.13;5107660;28;20203;-70
2022/11/09 01:35:28;;;;;;;35.93;24.13;;;;;;;6.96;100.00;93368.78;5108516;28;20236;-70
2022/11/09 01:37:54;;;;;;;34.40;23.73;;;;;;;6.99;100.00;93370.16;5107788;28;20194;-69
2022/11/09 01:40:19;;;;;;;33.60;24.27;;;;;;;7.01;100.00;93383.66;5106264;28;20861;-70
2022/11/09 01:42:44;;;;;;;35.87;23.10;;;;;;;6.85;100.00;93356.69;5108457;28;20192;-70
2022/11/09 01:45:16;;;;;;;32.87;23.10;;;;;;;6.98;100.00;93376.34;5105403;28;20220;-70
2022/11/09 01:47:42;;;;;;;38.07;23.23;;;;;;;6.74;100.00;93357.56;5106690;28;20212;-69
2022/11/09 01:50:09;;;;;;;33.13;24.23;;;;;;;6.96;100.00;93376.59;5105271;28;20235;-71
2022/11/09 01:52:38;;;;;;;33.57;23.07;;;;;;;6.97;100.00;93374.78;5107590;28;20180;-70
2022/11/09 01:55:11;;;;;;;34.83;23.37;;;;;;;7.07;100.00;93375.72;5099349;28;20315;-70
2022/11/09 01:57:47;;;;;;;32.43;22.93;;;;;;;7.05;100.00;93369.97;5086658;28;20189;-70
2022/11/09 02:00:14;;;;;;;34.53;23.67;;;;;;;7.15;100.00;93371.91;5093301;28;20219;-70
2022/11/09 02:02:50;;;;;;;30.67;23.53;;;;;;;7.25;100.00;93378.06;5095507;28;20251;-69
2022/11/09 02:05:20;;;;;;;29.10;22.50;;;;;;;6.99;100.00;93360.53;5096928;28;20220;-70
2022/11/09 02:07:46;;;;;;;31.97;23.97;;;;;;;7.02;100.00;93372.28;5097712;28;20242;-69
2022/11/09 02:10:23;;;;;;;33.50;21.77;;;;;;;7.05;100.00;93369.97;5096998;28;20244;-70
2022/11/09 02:12:49;;;;;;;29.53;21.97;;;;;;;7.12;100.00;93370.59;5099026;28;20176;-70
2022/11/09 02:15:15;;;;;;;33.57;23.27;;;;;;;7.02;100.00;93367.84;5101548;28;20224;-70
2022/11/09 02:17:42;;;;;;;35.80;22.60;;;;;;;6.99;100.00;93370.91;5098648;28;20191;-70
2022/11/09 02:20:14;;;;;;;34.67;23.80;;;;;;;6.94;100.00;93370.84;5094239;28;20220;-70
2022/11/09 02:22:40;;;;;;;29.43;22.23;;;;;;;6.85;100.00;93361.88;5091753;28;20188;-70
2022/11/09 02:25:07;;;;;;;26.87;21.90;;;;;;;6.99;100.00;93376.09;5090793;28;20213;-69
2022/11/09 02:27:34;;;;;;;30.10;22.47;;;;;;;6.86;100.00;93371.25;5091971;28;20273;-70
2022/11/09 02:30:01;;;;;;;30.43;21.20;;;;;;;6.67;100.00;93372.50;5098545;28;20220;-70
2022/11/09 02:32:29;;;;;;;29.03;22.40;;;;;;;6.85;100.00;93376.69;5111413;28;20184;-70
2022/11/09 02:34:54;;;;;;;29.27;22.53;;;;;;;6.73;100.00;93357.81;5110040;28;20231;-70
2022/11/09 02:37:26;;;;;;;30.17;21.60;;;;;;;6.72;100.00;93371.81;5109359;28;20187;-70
2022/11/09 02:39:52;;;;;;;25.90;21.43;;;;;;;6.75;100.00;93381.72;5109191;28;20224;-71
2022/11/09 02:42:18;;;;;;;29.33;20.87;;;;;;;6.71;100.00;93373.59;5108883;28;20180;-70
2022/11/09 02:44:48;;;;;;;27.80;22.57;;;;;;;6.71;100.00;93381.38;5110533;28;20258;-70
2022/11/09 02:47:14;;;;;;;30.33;22.40;;;;;;;6.62;100.00;93362.06;5109646;28;20219;-70
2022/11/09 02:49:39;;;;;;;33.07;22.70;;;;;;;6.63;100.00;93376.59;5110735;28;20287;-70
2022/11/09 02:52:04;;;;;;;27.63;22.27;;;;;;;6.65;100.00;93377.16;5108718;28;20193;-70
2022/11/09 02:54:30;;;;;;;27.87;22.77;;;;;;;6.73;100.00;93386.34;5109577;28;20231;-70
2022/11/09 02:56:56;;;;;;;26.83;21.63;;;;;;;6.65;100.00;93377.16;5110900;28;20196;-70
2022/11/09 02:59:21;;;;;;;32.60;22.70;;;;;;;6.73;100.00;93384.53;5110820;28;20164;-70
2022/11/09 03:01:47;;;;;;;26.43;21.70;;;;;;;6.66;100.00;93385.72;5110540;28;20188;-70
2022/11/09 03:04:12;;;;;;;27.17;21.87;;;;;;;6.57;100.00;93383.50;5110540;28;20184;-71
2022/11/09 03:06:37;;;;;;;27.53;21.13;;;;;;;6.58;100.00;93386.91;5108227;28;20206;-70
2022/11/09 03:09:11;;;;;;;27.60;22.30;;;;;;;6.52;100.00;93393.78;5109894;28;20194;-70
2022/11/09 03:11:38;;;;;;;28.77;20.83;;;;;;;6.70;100.00;93390.19;5109960;28;20199;-70
2022/11/09 03:14:03;;;;;;;31.10;23.40;;;;;;;6.69;100.00;93383.44;5108720;28;20198;-70
2022/11/09 03:16:29;;;;;;;31.70;24.03;;;;;;;6.64;100.00;93370.41;5090822;28;20221;-69
2022/11/09 03:18:55;;;;;;;28.23;21.77;;;;;;;6.74;100.00;93386.09;5091371;28;20192;-70
2022/11/09 03:21:21;;;;;;;29.10;20.73;;;;;;;6.61;100.00;93370.88;5099491;28;20239;-71
2022/11/09 03:23:47;;;;;;;26.37;21.60;;;;;;;6.59;100.00;93367.72;5099627;28;20181;-70
2022/11/09 03:26:13;;;;;;;32.50;21.87;;;;;;;6.60;100.00;93382.25;5090440;28;20216;-69
2022/11/09 03:28:38;;;;;;;28.90;21.10;;;;;;;6.56;100.00;93370.78;5089053;28;20903;-70
2022/11/09 03:31:04;;;;;;;30.03;22.40;;;;;;;6.75;100.00;93382.50;5106418;28;20219;-70
2022/11/09 03:33:29;;;;;;;29.20;20.07;;;;;;;6.64;100.00;93361.81;5108430;28;20195;-70
2022/11/09 03:35:55;;;;;;;28.80;21.90;;;;;;;6.67;100.00;93379.50;5109790;28;20242;-70
2022/11/09 03:38:20;;;;;;;27.40;20.97;;;;;;;6.60;100.00;93381.47;5110038;28;20182;-70
2022/11/09 03:40:45;;;;;;;28.27;21.20;;;;;;;6.56;100.00;93386.34;5108667;28;20235;-70
2022/11/09 03:43:11;;;;;;;27.27;22.30;;;;;;;6.55;100.00;93389.97;5109844;28;20179;-70
2022/11/09 03:45:36;;;;;;;28.83;22.80;;;;;;;6.50;100.00;93387.28;5109654;28;20227;-69
2022/11/09 03:48:02;;;;;;;27.90;20.63;;;;;;;6.48;100.00;93386.72;5109479;28;20208;-69
2022/11/09 03:50:30;;;;;;;29.93;21.13;;;;;;;6.52;100.00;93391.19;5108811;28;20258;-69
2022/11/09 03:52:57;;;;;;;29.93;21.43;;;;;;;6.58;100.00;93390.25;5107600;28;20180;-70
2022/11/09 03:55:22;;;;;;;25.80;21.53;;;;;;;6.44;100.00;93393.41;5109428;28;20227;-69
2022/11/09 03:57:48;;;;;;;26.70;22.60;;;;;;;6.52;100.00;93388.59;5111351;28;20188;-70
2022/11/09 04:00:16;;;;;;;33.83;23.07;;;;;;;6.53;100.00;93394.59;5108489;28;20227;-70
2022/11/09 04:02:42;;;;;;;31.80;21.90;;;;;;;6.40;100.00;93379.31;5109212;28;20184;-70
2022/11/09 04:05:08;;;;;;;28.67;22.50;;;;;;;6.53;100.00;93394.59;5109718;28;20280;-70
2022/11/09 04:07:34;;;;;;;26.80;21.73;;;;;;;6.51;100.00;93391.44;5107872;28;20204;-70
2022/11/09 04:09:59;;;;;;;30.30;23.07;;;;;;;6.38;100.00;93392.53;5107554;28;20223;-70
2022/11/09 04:12:24;;;;;;;26.77;22.57;;;;;;;6.43;100.00;93399.59;5109479;28;20208;-70
2022/11/09 04:14:50;;;;;;;28.90;22.53;;;;;;;6.45;100.00;93387.19;5108737;28;20242;-70
2022/11/09 04:17:15;;;;;;;26.20;20.73;;;;;;;6.40;100.00;93392.28;5108312;28;20175;-71
2022/11/09 04:19:40;;;;;;;28.63;21.17;;;;;;;6.38;100.00;93389.94;5108188;28;20220;-70
2022/11/09 04:22:06;;;;;;;26.27;21.80;;;;;;;6.40;100.00;93387.91;5105998;28;20435;-69
2022/11/09 04:24:31;;;;;;;31.33;21.73;;;;;;;6.37;100.00;93396.16;5106611;28;20360;-70
2022/11/09 04:26:56;;;;;;;28.60;22.37;;;;;;;6.32;100.00;93393.47;5106589;28;21042;-71
2022/11/09 04:29:22;;;;;;;28.07;21.30;;;;;;;6.32;100.00;93377.09;5109213;28;20184;-70
2022/11/09 04:31:48;;;;;;;27.10;21.30;;;;;;;6.08;100.00;93339.38;5107772;28;20228;-70
2022/11/09 04:34:14;;;;;;;34.10;22.93;;;;;;;6.45;100.00;93387.19;5108246;28;20184;-69
2022/11/09 04:36:39;;;;;;;25.70;20.80;;;;;;;6.43;100.00;93389.22;5109319;28;20199;-69
2022/11/09 04:39:04;;;;;;;28.77;22.43;;;;;;;6.48;100.00;93386.72;5106494;28;20195;-69
2022/11/09 04:41:30;;;;;;;25.97;21.40;;;;;;;6.54;100.00;93390.97;5106611;28;20211;-70
2022/11/09 04:43:55;;;;;;;28.00;21.73;;;;;;;6.34;100.00;93364.69;5109261;28;20184;-71
2022/11/09 04:46:20;;;;;;;29.37;20.67;;;;;;;6.46;100.00;93386.16;5107350;28;20223;-70
2022/11/09 04:48:46;;;;;;;26.67;21.00;;;;;;;6.50;100.00;93395.06;5108769;28;20294;-70
2022/11/09 04:51:11;;;;;;;26.00;20.97;;;;;;;6.37;100.00;93385.78;5107763;28;20655;-70
2022/11/09 04:53:37;;;;;;;26.90;20.97;;;;;;;6.43;100.00;93402.19;5106202;28;20215;-70
2022/11/09 04:56:05;;;;;;;29.10;20.37;;;;;;;6.35;100.00;93392.22;5107129;28;20226;-70
2022/11/09 04:58:30;;;;;;;25.40;21.43;;;;;;;6.33;100.00;93400.19;5107856;28;20184;-71
2022/11/09 05:01:22;;;;;;;27.50;20.83;;;;;;;6.39;100.00;93395.91;5086688;28;20249;-71
2022/11/09 05:03:48;;;;;;;24.40;20.67;;;;;;;6.58;100.00;93405.81;5086868;28;20204;-70
2022/11/09 05:06:31;;;;;;;28.67;20.67;;;;;;;6.54;100.00;93406.53;5105766;28;20235;-70
2022/11/09 05:08:59;;;;;;;24.10;19.33;;;;;;;6.45;100.00;93407.94;5106364;28;20218;-69
2022/11/09 05:11:24;;;;;;;29.73;20.83;;;;;;;6.48;100.00;93405.69;5105124;28;20227;-68
2022/11/09 05:13:50;;;;;;;29.47;21.60;;;;;;;6.47;100.00;93411.84;5106917;28;20195;-70
2022/11/09 05:16:16;;;;;;;32.17;21.07;;;;;;;6.57;100.00;93421.63;5106633;28;20226;-68
2022/11/09 05:18:42;;;;;;;26.20;21.03;;;;;;;6.45;100.00;93418.31;5107329;28;20184;-69
2022/11/09 05:21:08;;;;;;;29.37;21.70;;;;;;;6.39;100.00;93420.03;5104661;28;20292;-69
2022/11/09 05:26:17;;;;;;;32.47;23.27;;;;;;;6.51;100.00;93422.56;5105710;28;20245;-67
2022/11/09 05:28:43;;;;;;;38.07;22.70;;;;;;;6.62;100.00;93421.72;5108663;28;20277;-68
2022/11/09 05:31:09;;;;;;;26.27;22.57;;;;;;;6.63;100.00;93419.91;5107618;28;20223;-68
2022/11/09 05:33:34;;;;;;;31.03;23.73;;;;;;;6.58;100.00;93394.69;5108036;28;20215;-68
2022/11/09 05:36:00;;;;;;;30.63;23.67;;;;;;;6.76;100.00;93428.19;5107210;28;20220;-67
2022/11/09 05:38:25;;;;;;;30.87;22.63;;;;;;;6.79;100.00;93430.31;5108356;28;20230;-68
2022/11/09 05:40:51;;;;;;;32.97;22.77;;;;;;;6.93;100.00;93425.56;5103224;28;20227;-67
2022/11/09 05:43:17;;;;;;;26.77;21.07;;;;;;;6.95;100.00;93423.53;5106658;28;20191;-67
2022/11/09 05:45:43;;;;;;;30.07;23.03;;;;;;;6.87;100.00;93416.94;5109747;28;20257;-69
2022/11/09 05:48:10;;;;;;;31.30;23.63;;;;;;;6.93;100.00;93435.97;5110250;28;20211;-69
2022/11/09 05:50:36;;;;;;;30.07;21.70;;;;;;;7.00;100.00;93434.00;5097845;28;20267;-67
2022/11/09 05:53:01;;;;;;;27.63;21.87;;;;;;;7.06;100.00;93426.06;5091766;28;20204;-69
2022/11/09 05:55:27;;;;;;;31.50;22.03;;;;;;;7.11;100.00;93433.16;5103927;28;20219;-68
2022/11/09 05:57:53;;;;;;;31.57;22.20;;;;;;;7.16;100.00;93441.03;5111934;28;20255;-65
2022/11/09 06:00:19;;;;;;;30.53;23.33;;;;;;;7.22;100.00;93448.63;5111862;28;20234;-68
2022/11/09 06:02:44;;;;;;;29.07;22.97;;;;;;;7.34;100.00;93457.13;5112496;28;20208;-69
2022/11/09 06:05:10;;;;;;;32.47;22.37;;;;;;;7.37;100.00;93458.47;5107640;28;20224;-69
2022/11/09 06:07:36;;;;;;;28.90;22.97;;;;;;;7.45;100.00;93448.47;5112001;28;20211;-69
2022/11/09 06:10:01;;;;;;;32.30;20.83;;;;;;;7.65;100.00;93464.34;5111615;28;20321;-69
2022/11/09 06:12:27;;;;;;;33.13;22.23;;;;;;;7.83;100.00;93469.25;5111541;28;20176;-70
2022/11/09 06:14:52;;;;;;;27.87;20.97;;;;;;;8.02;100.00;93461.94;5111208;28;20223;-68
2022/11/09 06:17:18;;;;;;;34.23;22.53;;;;;;;8.32;100.00;93464.13;5112027;28;20197;-71
2022/11/09 06:19:43;;;;;;;33.87;23.60;;;;;;;8.45;100.00;93455.97;5110908;28;20223;-70
2022/11/09 06:22:08;;;;;;;30.27;22.30;;;;;;;8.82;100.00;93467.28;5111281;28;20177;-70
2022/11/09 06:24:34;;;;;;;33.87;23.87;;;;;;;8.98;100.00;93466.38;5110878;28;20212;-71
2022/11/09 06:26:59;;;;;;;32.40;23.80;;;;;;;9.04;100.00;93460.19;5110525;28;20196;-71
2022/11/09 06:29:25;;;;;;;31.53;23.00;;;;;;;9.22;100.00;93462.41;5109917;28;20315;-70
2022/11/09 06:31:50;;;;;;;35.10;23.27;;;;;;;9.46;100.00;93474.06;5111404;28;20250;-71
2022/11/09 06:34:16;;;;;;;28.47;22.40;;;;;;;9.74;100.00;93471.13;5109626;28;20661;-71
2022/11/09 06:36:42;;;;;;;26.13;20.83;;;;;;;9.94;100.00;93473.84;5110623;28;20192;-71
2022/11/09 06:39:07;;;;;;;29.20;23.50;;;;;;;10.07;100.00;93470.00;5110319;28;20176;-71
2022/11/09 06:41:33;;;;;;;32.83;25.37;;;;;;;10.21;99.69;93463.31;5111667;28;20192;-71
2022/11/09 06:43:59;;;;;;;27.07;22.83;;;;;;;10.21;98.98;93465.91;5110536;28;20240;-71
2022/11/09 06:46:24;;;;;;;29.07;21.10;;;;;;;10.12;99.20;93467.41;5110079;28;20290;-71
2022/11/09 06:48:49;;;;;;;28.20;21.57;;;;;;;10.04;98.49;93450.38;5112443;28;20242;-71
2022/11/09 06:51:15;;;;;;;28.90;22.93;;;;;;;10.15;99.16;93467.69;5111252;28;20224;-71
2022/11/09 06:53:40;;;;;;;29.20;22.13;;;;;;;10.10;99.59;93465.06;5110631;28;20291;-71
2022/11/09 06:56:07;;;;;;;32.00;23.23;;;;;;;10.12;99.48;93467.41;5110472;28;20245;-71
2022/11/09 06:58:32;;;;;;;30.87;23.17;;;;;;;10.05;100.00;93472.84;5110353;28;20961;-71
2022/11/09 07:00:58;;;;;;;32.83;25.50;;;;;;;9.92;100.00;93473.28;5109152;28;20231;-71
2022/11/09 07:03:23;;;;;;;36.80;26.27;;;;;;;9.95;100.00;93479.81;5110037;28;20196;-71
2022/11/09 07:05:51;;;;;;;37.93;26.13;;;;;;;9.78;100.00;93478.19;5106133;28;20215;-71
2022/11/09 07:08:17;;;;;;;41.07;26.30;;;;;;;9.69;100.00;93468.47;5109631;28;20211;-71
2022/11/09 07:10:43;;;;;;;36.47;26.40;;;;;;;9.83;100.00;93474.81;5108686;28;20224;-71
2022/11/09 07:13:09;;;;;;;39.03;26.37;;;;;;;9.93;100.00;93480.06;5110081;28;20215;-71
2022/11/09 07:15:36;;;;;;;40.53;26.37;;;;;;;9.68;100.00;93466.91;5108357;28;20225;-71
2022/11/09 07:18:04;;;;;;;39.50;26.13;;;;;;;10.06;100.00;93478.84;5109074;28;20196;-71
2022/11/09 07:20:30;;;;;;;38.17;25.70;;;;;;;10.03;100.00;93468.91;5109721;28;20219;-71
2022/11/09 07:22:56;;;;;;;36.13;26.27;;;;;;;10.05;100.00;93477.28;5109791;28;20216;-71
2022/11/09 07:25:22;;;;;;;41.73;25.50;;;;;;;9.96;100.00;93473.59;5110258;28;20223;-71
2022/11/09 07:27:47;;;;;;;43.33;27.67;;;;;;;9.92;100.00;93464.69;5110221;28;20227;-71
2022/11/09 07:30:13;;;;;;;45.53;29.17;;;;;;;10.23;100.00;93471.63;5108814;28;20222;-72
2022/11/09 07:32:40;;;;;;;50.63;29.90;;;;;;;10.21;100.00;93463.31;5109537;28;20191;-71
2022/11/09 07:35:06;;;;;;;46.83;28.17;;;;;;;10.28;100.00;93471.66;5109096;28;20239;-71
2022/11/09 07:37:32;;;;;;;47.77;28.17;;;;;;;10.14;100.00;93466.13;5110470;28;20192;-71
2022/11/09 07:39:58;;;;;;;45.83;29.43;;;;;;;10.22;100.00;93462.25;5108711;28;20224;-71
2022/11/09 07:42:24;;;;;;;44.90;28.83;;;;;;;10.31;100.00;93471.94;5110000;28;20188;-71
2022/11/09 07:44:49;;;;;;;46.97;29.40;;;;;;;10.24;100.00;93474.00;5109289;28;20247;-72
2022/11/09 07:47:17;;;;;;;48.60;29.03;;;;;;;10.34;100.00;93471.44;5109330;28;20226;-71
2022/11/09 07:49:42;;;;;;;44.77;29.73;;;;;;;10.51;100.00;93479.06;5108092;28;20230;-71
2022/11/09 07:52:07;;;;;;;39.37;27.37;;;;;;;10.73;99.79;93466.59;5110162;28;20240;-71
2022/11/09 07:54:33;;;;;;;39.87;27.63;;;;;;;10.57;100.00;93478.81;5105806;28;20275;-71
2022/11/09 07:56:58;;;;;;;49.37;29.90;;;;;;;10.43;100.00;93475.13;5109712;28;20199;-71
2022/11/09 07:59:24;;;;;;;48.33;29.80;;;;;;;10.46;100.00;93466.00;5109196;28;20195;-72
2022/11/09 08:01:49;;;;;;;43.03;28.40;;;;;;;10.68;100.00;93475.19;5108289;28;20203;-71
2022/11/09 08:04:14;;;;;;;44.93;29.17;;;;;;;10.74;100.00;93476.78;5107290;28;20240;-71
2022/11/09 08:06:40;;;;;;;41.20;26.03;;;;;;;10.88;100.00;93474.47;5108797;28;20226;-72
2022/11/09 08:09:05;;;;;;;45.17;27.07;;;;;;;10.96;99.75;93479.16;5106969;28;20216;-71
2022/11/09 08:11:30;;;;;;;41.80;26.90;;;;;;;10.82;99.94;93475.47;5110208;28;20810;-71
2022/11/09 08:13:56;;;;;;;40.60;27.13;;;;;;;10.77;99.86;93478.09;5109127;28;21079;-71
2022/11/09 08:16:22;;;;;;;42.30;26.37;;;;;;;10.92;99.76;93476.31;5105832;28;20223;-71
2022/11/09 08:18:50;;;;;;;39.50;27.93;;;;;;;11.17;98.64;93478.91;5108846;28;20208;-72
2022/11/09 08:21:17;;;;;;;39.83;27.30;;;;;;;11.39;95.77;93479.47;5092122;28;20296;-71
2022/11/09 08:23:42;;;;;;;45.17;28.07;;;;;;;11.30;95.71;93482.84;5087855;28;20191;-71
2022/11/09 08:26:09;;;;;;;39.53;27.53;;;;;;;11.43;96.21;93473.69;5094019;28;20220;-71
2022/11/09 08:28:34;;;;;;;41.07;27.60;;;;;;;11.62;95.50;93483.38;5100927;28;20220;-71
2022/11/09 08:31:02;;;;;;;47.27;28.67;;;;;;;11.71;93.46;93481.03;5090786;28;20236;-71
2022/11/09 08:33:30;;;;;;;38.37;26.90;;;;;;;11.22;97.01;93476.31;5088530;28;20226;-71
2022/11/09 08:35:56;;;;;;;40.60;28.30;;;;;;;11.35;95.28;93488.88;5102889;28;20253;-72
2022/11/09 08:38:21;;;;;;;47.30;27.30;;;;;;;11.13;96.37;93480.50;5108794;28;20188;-71
2022/11/09 08:40:47;;;;;;;36.80;26.93;;;;;;;11.35;96.55;93481.03;5108722;28;20246;-71
2022/11/09 08:43:12;;;;;;;38.60;27.27;;;;;;;11.64;92.98;93481.34;5106381;28;20161;-71
2022/11/09 08:45:39;;;;;;;40.10;29.03;;;;;;;11.39;94.64;93492.53;5106289;28;20228;-72
2022/11/09 08:48:06;;;;;;;42.53;29.23;;;;;;;11.67;93.99;93485.25;5108519;28;20216;-71
2022/11/09 08:50:33;;;;;;;42.40;28.23;;;;;;;11.61;94.01;93486.25;5108134;28;20239;-72
2022/11/09 08:53:00;;;;;;;46.77;28.10;;;;;;;11.67;92.60;93474.78;5106749;28;20186;-71
2022/11/09 08:55:25;;;;;;;41.40;29.67;;;;;;;11.37;94.78;93467.72;5107753;28;20240;-71
2022/11/09 08:57:56;;;;;;;41.60;29.93;;;;;;;11.52;93.45;93477.38;5106173;28;20200;-71
2022/11/09 09:00:22;;;;;;;46.43;27.87;;;;;;;11.32;94.64;93480.78;5106347;28;20249;-70
2022/11/09 09:02:47;;;;;;;50.80;29.90;;;;;;;11.62;94.14;93477.38;5109067;28;20203;-71
2022/11/09 09:05:13;;;;;;;46.90;30.20;;;;;;;11.72;92.92;93487.84;5107883;28;20359;-71
2022/11/09 09:07:38;;;;;;;44.03;28.57;;;;;;;11.79;92.12;93483.91;5109229;28;20204;-71
2022/11/09 09:10:04;;;;;;;49.30;29.53;;;;;;;11.98;91.92;93486.75;5106866;28;20256;-71
2022/11/09 09:12:31;;;;;;;43.97;29.20;;;;;;;12.05;91.16;93482.81;5109178;28;20180;-71
2022/11/09 09:14:56;;;;;;;47.13;30.53;;;;;;;12.11;89.94;93480.97;5104883;28;20300;-71
2022/11/09 09:17:22;;;;;;;48.10;29.27;;;;;;;12.16;90.48;93483.56;5108184;28;20276;-72
2022/11/09 09:19:47;;;;;;;43.17;28.53;;;;;;;12.44;88.88;93486.38;5107451;28;20224;-71
2022/11/09 09:22:12;;;;;;;43.33;28.70;;;;;;;12.51;86.72;93473.75;5112292;28;20259;-71
2022/11/09 09:24:38;;;;;;;42.63;28.47;;;;;;;12.30;88.64;93485.38;5110582;28;20220;-71
2022/11/09 09:27:03;;;;;;;44.70;28.93;;;;;;;12.29;89.19;93480.41;5111741;28;20228;-71
2022/11/09 09:29:28;;;;;;;39.83;28.37;;;;;;;12.51;87.21;93473.75;5112613;28;20283;-71
2022/11/09 09:31:54;;;;;;;44.90;29.47;;;;;;;12.58;86.01;93471.63;5111830;28;20179;-71
2022/11/09 09:34:19;;;;;;;47.03;30.10;;;;;;;12.45;88.32;93476.69;5111305;28;20220;-72
2022/11/09 09:36:44;;;;;;;46.90;29.23;;;;;;;12.40;87.44;93482.72;5111693;28;20218;-71
2022/11/09 09:39:10;;;;;;;45.70;29.43;;;;;;;12.32;87.61;93474.63;5109394;28;20201;-71
2022/11/09 09:41:40;;;;;;;41.83;28.10;;;;;;;12.18;88.69;93469.19;5113012;28;20276;-71
2022/11/09 09:44:17;;;;;;;40.13;28.70;;;;;;;12.29;88.84;93462.06;5110021;28;20207;-71
2022/11/09 09:46:48;;;;;;;45.13;29.53;;;;;;;12.37;87.95;93459.66;5111900;28;20188;-71
2022/11/09 09:49:19;;;;;;;44.33;28.70;;;;;;;12.30;88.23;93464.41;5108677;28;20193;-71
2022/11/09 09:52:00;;;;;;;39.43;26.57;;;;;;;12.46;87.37;93457.28;5092514;28;20196;-71
2022/11/09 09:54:39;;;;;;;47.03;29.27;;;;;;;12.48;86.38;93455.19;5093049;28;20261;-71
2022/11/09 09:57:19;;;;;;;41.80;26.70;;;;;;;12.43;87.71;93455.19;5100635;28;20192;-71
2022/11/09 09:59:51;;;;;;;44.10;27.97;;;;;;;12.55;85.92;93459.06;5105563;28;20241;-71
2022/11/09 10:02:28;;;;;;;43.00;27.67;;;;;;;12.60;85.59;93450.41;5111566;28;20194;-71
2022/11/09 10:04:59;;;;;;;40.70;27.83;;;;;;;12.45;86.47;93429.53;5111394;28;20227;-71
2022/11/09 10:07:32;;;;;;;43.53;28.00;;;;;;;12.43;85.94;93450.75;5109997;28;20207;-72
2022/11/09 10:10:22;;;;;;;42.70;28.07;;;;;;;12.23;87.73;93440.34;5110005;28;20323;-70
2022/11/09 10:13:18;;;;;;;37.83;25.33;;;;;;;12.27;86.57;93444.00;5111468;28;20180;-71
2022/11/09 10:16:02;;;;;;;42.90;27.33;;;;;;;12.61;85.46;93444.09;5109639;28;20290;-72
2022/11/09 10:19:06;;;;;;;40.90;26.77;;;;;;;12.92;82.39;93440.25;5110420;28;20203;-72
2022/11/09 10:21:40;;;;;;;36.10;25.53;;;;;;;13.19;80.13;93439.84;5109859;28;20214;-71
2022/11/09 10:24:24;;;;;;;36.60;25.00;;;;;;;13.10;80.43;93433.63;5109177;28;20247;-73
2022/11/09 10:26:53;;;;;;;32.10;25.20;;;;;;;13.37;78.10;93437.34;5110286;28;20243;-71
2022/11/09 10:29:33;;;;;;;34.87;25.63;;;;;;;13.28;77.67;93446.06;5109954;28;20203;-71
2022/11/09 10:32:19;;;;;;;36.90;25.33;;;;;;;13.64;75.57;93444.72;5110455;28;21218;-71
2022/11/09 10:35:01;;;;;;;36.50;26.20;;;;;;;13.40;78.30;93434.16;5109677;28;20227;-71
2022/11/09 10:37:35;;;;;;;39.97;26.20;;;;;;;13.50;76.43;93431.47;5112019;28;20188;-72
2022/11/09 10:40:07;;;;;;;30.30;24.27;;;;;;;13.34;77.59;93431.88;5110848;28;20220;-71
2022/11/09 10:42:32;;;;;;;38.33;24.43;;;;;;;13.41;76.50;93427.88;5111364;28;20218;-71
2022/11/09 10:45:10;;;;;;;41.20;25.47;;;;;;;13.41;76.75;93427.88;5111051;28;20216;-71
2022/11/09 10:47:47;;;;;;;38.67;24.90;;;;;;;13.22;77.12;93416.47;5108777;28;20207;-71
2022/11/09 10:50:36;;;;;;;32.57;24.73;;;;;;;13.11;78.09;93422.06;5111618;28;20219;-71
2022/11/09 10:53:10;;;;;;;32.67;24.17;;;;;;;13.17;77.28;93421.75;5111472;28;20186;-71
2022/11/09 10:55:35;;;;;;;36.57;25.83;;;;;;;13.28;78.06;93418.00;5111082;28;20231;-71
2022/11/09 10:58:17;;;;;;;31.80;23.53;;;;;;;13.09;76.87;93417.09;5110766;28;20196;-71
2022/11/09 11:01:12;;;;;;;30.40;22.47;;;;;;;13.18;76.90;93405.00;5106269;28;20231;-71
2022/11/09 11:03:38;;;;;;;35.97;24.50;;;;;;;13.07;77.45;93406.13;5107886;28;20192;-71
2022/11/09 11:06:22;;;;;;;33.77;23.53;;;;;;;13.33;75.40;93410.09;5110620;28;20227;-72
2022/11/09 11:08:56;;;;;;;33.63;23.60;;;;;;;13.26;78.14;93408.84;5109322;28;20265;-71
2022/11/09 11:11:32;;;;;;;37.00;24.73;;;;;;;13.19;77.61;93406.53;5110153;28;20227;-72
2022/11/09 11:14:20;;;;;;;37.03;24.73;;;;;;;13.19;77.43;93398.69;5109072;28;20183;-71
2022/11/09 11:16:46;;;;;;;32.20;24.40;;;;;;;13.32;78.36;93403.31;5089778;28;20264;-71
2022/11/09 11:19:34;;;;;;;28.93;23.83;;;;;;;13.33;78.16;93397.00;5090510;28;20209;-71
2022/11/09 11:22:13;;;;;;;35.80;25.20;;;;;;;13.49;78.46;93393.19;5100174;28;20240;-71